Hauptseite
METAR-TAF:

METAR-TAF

Flughäfen :

Souillac

Brive-la-Gaillarde, Frankreich

Breite: 45-02-28N, Länge: 001-28-59E, Höhe: 311 m

Beobachtung

Neuester Wetterbericht von vor 16 Minuten, um 18:30 UTC
Windstille
Temperatur 8°C
Luftfeuchtigkeit 93%
Luftdruck 1020 hPa
Sichtweite 10 km oder mehr
keine Wolken unter 1500 m und keine Kumulonimbus oder Gewitterwolken

METAR: LFSL 161830Z AUTO 00000KT CAVOK 08/07 Q1020 NOSIG

Zeit: 19:46 (18:46 UTC)

Prognose

Neuester Wetterbericht von vor 1 Stunde und 46 Minuten, um 17:00 UTC
Gültige Prognose vom 16 um 18 UTC bis 17 um 03 UTC
Wind 3 kt aus Ost/Südost
Sichtweite 10 km oder mehr
keine Wolken unter 1500 m und keine Kumulonimbus oder Gewitterwolken

TAF: LFSL 161700Z 1618/1703 12003KT CAVOK

Wetterbeobachtungen und Prognosen von mehr als 4000 Flughäfen (METAR und TAF Bericht).

Die verfügbaren Stationen werden durch gelbe und rote Markierungen auf der Karte dargestellt.

Führen Sie die Maus auf sie, um den Namen der Station zu sehen.

Darauf klicken, um die Beobachtung von Wetterbeobachtungen und Prognosen zu sehen.

Um die Karte zu ändern : klicken Sie auf den grünen Tasten mit einem schwarzen Kreuz Zum Vergrößern, auf den grünen Button mit einem Gedankenstrich zu verkleinern, oder auf die grünen Pfeile für benachbarte Karten.


METAR-TAF: